createdAt,value
2022-12-27T00:00:12.365Z,1007.69
2022-12-27T00:01:12.366Z,1007.70
2022-12-27T00:02:12.377Z,1007.74
2022-12-27T00:03:12.403Z,1007.74
2022-12-27T00:04:12.354Z,1007.76
2022-12-27T00:05:12.339Z,1007.76
2022-12-27T00:06:12.353Z,1007.78
2022-12-27T00:07:12.323Z,1007.79
2022-12-27T00:08:12.303Z,1007.76
2022-12-27T00:09:12.319Z,1007.75
2022-12-27T00:10:12.285Z,1007.75
2022-12-27T00:11:12.301Z,1007.78
2022-12-27T00:12:12.252Z,1007.76
2022-12-27T00:13:12.260Z,1007.77
2022-12-27T00:14:12.265Z,1007.74
2022-12-27T00:15:12.225Z,1007.76
2022-12-27T00:16:18.758Z,1007.73
2022-12-27T00:17:12.312Z,1007.72
2022-12-27T00:18:12.187Z,1007.75
2022-12-27T00:19:12.219Z,1007.72
2022-12-27T00:20:12.240Z,1007.71
2022-12-27T00:21:12.191Z,1007.69
2022-12-27T00:22:12.179Z,1007.66
2022-12-27T00:23:12.154Z,1007.72
2022-12-27T00:24:12.168Z,1007.74
2022-12-27T00:25:12.115Z,1007.69
2022-12-27T00:26:12.114Z,1007.70
2022-12-27T00:27:12.085Z,1007.74
2022-12-27T00:28:12.081Z,1007.79
2022-12-27T00:29:12.124Z,1007.82
2022-12-27T00:30:12.066Z,1007.81
2022-12-27T00:31:12.136Z,1007.82
2022-12-27T00:32:12.047Z,1007.88
2022-12-27T00:33:12.056Z,1007.82
2022-12-27T00:34:12.068Z,1007.85
2022-12-27T00:35:12.039Z,1007.91
2022-12-27T00:36:12.023Z,1007.87
2022-12-27T00:37:12.030Z,1007.86
2022-12-27T00:38:11.989Z,1007.89
2022-12-27T00:39:12.002Z,1007.90
2022-12-27T00:40:11.983Z,1007.87
2022-12-27T00:41:11.963Z,1007.90
2022-12-27T00:42:11.951Z,1007.93
2022-12-27T00:43:11.937Z,1007.98
2022-12-27T00:44:11.982Z,1007.95
2022-12-27T00:45:11.927Z,1007.89
2022-12-27T00:46:12.013Z,1007.97
2022-12-27T00:47:11.896Z,1007.98
2022-12-27T00:48:11.907Z,1008.01
2022-12-27T00:49:11.935Z,1008.01
2022-12-27T00:50:11.870Z,1008.00
2022-12-27T00:51:11.868Z,1008.02
2022-12-27T00:52:11.846Z,1008.02
2022-12-27T00:53:11.839Z,1008.03
2022-12-27T00:54:11.869Z,1008.04
2022-12-27T00:55:11.863Z,1008.05
2022-12-27T00:56:11.812Z,1008.01
2022-12-27T00:57:11.822Z,1008.05
2022-12-27T00:58:11.806Z,1008.01
2022-12-27T00:59:11.881Z,1008.04
2022-12-27T01:00:11.782Z,1008.03
2022-12-27T01:01:11.963Z,1008.05
2022-12-27T01:02:11.830Z,1008.05
2022-12-27T01:03:11.736Z,1008.06
2022-12-27T01:04:11.784Z,1008.07
2022-12-27T01:05:11.740Z,1008.05
2022-12-27T01:06:11.701Z,1008.06
2022-12-27T01:07:11.722Z,1008.09
2022-12-27T01:08:11.686Z,1008.09
2022-12-27T01:09:11.737Z,1008.06
2022-12-27T01:10:11.682Z,1008.04
2022-12-27T01:11:11.656Z,1008.04
2022-12-27T01:12:11.641Z,1008.01
2022-12-27T01:13:11.645Z,1008.02
2022-12-27T01:14:11.630Z,1008.01
2022-12-27T01:15:11.659Z,1008.02
2022-12-27T01:16:11.689Z,1008.03
2022-12-27T01:17:11.598Z,1008.04
2022-12-27T01:18:11.600Z,1008.09
2022-12-27T01:19:12.087Z,1008.09
2022-12-27T01:20:11.607Z,1008.09
2022-12-27T01:21:11.584Z,1008.08
2022-12-27T01:22:11.588Z,1008.08
2022-12-27T01:23:11.628Z,1008.11
2022-12-27T01:24:11.542Z,1008.12
2022-12-27T01:25:11.544Z,1008.13
2022-12-27T01:26:11.514Z,1008.11
2022-12-27T01:27:11.522Z,1008.14
2022-12-27T01:28:11.507Z,1008.15
2022-12-27T01:29:11.510Z,1008.14
2022-12-27T01:30:11.500Z,1008.18
2022-12-27T01:31:11.492Z,1008.18
2022-12-27T01:32:11.464Z,1008.18
2022-12-27T01:33:11.459Z,1008.22
2022-12-27T01:34:11.463Z,1008.24
2022-12-27T01:35:11.451Z,1008.28
2022-12-27T01:36:11.412Z,1008.29
2022-12-27T01:37:11.404Z,1008.27
2022-12-27T01:38:11.429Z,1008.30
2022-12-27T01:39:11.418Z,1008.33
2022-12-27T01:40:11.416Z,1008.35
2022-12-27T01:41:11.360Z,1008.37
2022-12-27T01:42:11.371Z,1008.37
2022-12-27T01:43:11.347Z,1008.38
2022-12-27T01:44:11.339Z,1008.38
2022-12-27T01:45:11.386Z,1008.40
2022-12-27T01:46:11.425Z,1008.43
2022-12-27T01:47:11.298Z,1008.47
2022-12-27T01:48:11.289Z,1008.50
2022-12-27T01:49:11.306Z,1008.49
2022-12-27T01:50:11.318Z,1008.51
2022-12-27T01:51:11.262Z,1008.53
2022-12-27T01:52:11.319Z,1008.51
2022-12-27T01:53:11.248Z,1008.51
2022-12-27T01:54:11.247Z,1008.53
2022-12-27T01:55:11.265Z,1008.53
2022-12-27T01:56:11.225Z,1008.53
2022-12-27T01:57:11.207Z,1008.54
2022-12-27T01:58:11.177Z,1008.56
2022-12-27T01:59:11.181Z,1008.59
2022-12-27T02:00:11.202Z,1008.58
2022-12-27T02:01:11.343Z,1008.60
2022-12-27T02:02:11.366Z,1008.58
2022-12-27T02:03:11.197Z,1008.60
2022-12-27T02:04:11.165Z,1008.60
2022-12-27T02:05:11.171Z,1008.58
2022-12-27T02:06:11.132Z,1008.59
2022-12-27T02:07:11.162Z,1008.60
2022-12-27T02:08:11.128Z,1008.58
2022-12-27T02:09:11.192Z,1008.56
2022-12-27T02:10:11.117Z,1008.58
2022-12-27T02:11:11.057Z,1008.58
2022-12-27T02:12:11.069Z,1008.54
2022-12-27T02:13:11.066Z,1008.53
2022-12-27T02:14:11.055Z,1008.55
2022-12-27T02:15:11.085Z,1008.53
2022-12-27T02:16:11.055Z,1008.50
2022-12-27T02:17:11.005Z,1008.53
2022-12-27T02:18:11.007Z,1008.52
2022-12-27T02:19:11.003Z,1008.53
2022-12-27T02:20:11.000Z,1008.45
2022-12-27T02:23:26.887Z,1008.50
2022-12-27T02:24:27.879Z,1008.50
2022-12-27T02:25:27.885Z,1008.47
2022-12-27T02:26:27.833Z,1008.43
2022-12-27T02:27:27.827Z,1008.41
2022-12-27T02:28:27.813Z,1008.42
2022-12-27T02:29:27.801Z,1008.39
2022-12-27T02:30:27.870Z,1008.36
2022-12-27T02:31:27.782Z,1008.35
2022-12-27T02:32:27.770Z,1008.34
2022-12-27T02:33:27.800Z,1008.32
2022-12-27T02:34:27.791Z,1008.32
2022-12-27T02:35:27.806Z,1008.32
2022-12-27T02:36:27.735Z,1008.39
2022-12-27T02:37:27.754Z,1008.36
2022-12-27T02:38:27.732Z,1008.37
2022-12-27T02:39:27.731Z,1008.39
2022-12-27T02:40:27.712Z,1008.41
2022-12-27T02:41:27.680Z,1008.41
2022-12-27T02:46:03.405Z,1008.49
2022-12-27T02:47:03.003Z,1008.50
2022-12-27T02:48:03.034Z,1008.49
2022-12-27T02:49:02.960Z,1008.55
2022-12-27T02:50:02.977Z,1008.54
2022-12-27T02:51:02.980Z,1008.59
2022-12-27T02:52:02.969Z,1008.57
2022-12-27T02:53:02.931Z,1008.55
2022-12-27T02:54:02.912Z,1008.54
2022-12-27T02:55:02.922Z,1008.53
2022-12-27T02:56:02.932Z,1008.52
2022-12-27T02:57:02.883Z,1008.48
2022-12-27T02:58:02.886Z,1008.54
2022-12-27T02:59:02.902Z,1008.55
2022-12-27T03:02:18.915Z,1008.53
2022-12-27T03:03:27.822Z,1008.56
2022-12-27T03:11:45.726Z,1008.68
2022-12-27T03:12:44.491Z,1008.73
2022-12-27T03:13:44.363Z,1008.69
2022-12-27T03:14:44.354Z,1008.72
2022-12-27T03:15:44.402Z,1008.71
2022-12-27T03:16:44.382Z,1008.71
2022-12-27T03:17:44.327Z,1008.74
2022-12-27T03:18:44.330Z,1008.76
2022-12-27T03:19:44.326Z,1008.82
2022-12-27T03:20:44.322Z,1008.80
2022-12-27T03:21:44.310Z,1008.77
2022-12-27T03:22:44.276Z,1008.82
2022-12-27T03:23:44.266Z,1008.81
2022-12-27T03:24:44.292Z,1008.84
2022-12-27T03:25:44.248Z,1008.85
2022-12-27T03:26:44.267Z,1008.82
2022-12-27T03:27:44.215Z,1008.85
2022-12-27T03:28:44.237Z,1008.83
2022-12-27T03:29:44.287Z,1008.89
2022-12-27T03:30:44.252Z,1008.87
2022-12-27T03:31:44.218Z,1008.87
2022-12-27T03:32:44.184Z,1008.86
2022-12-27T03:33:44.151Z,1008.90
2022-12-27T03:34:44.165Z,1008.92
2022-12-27T03:35:44.159Z,1008.85
2022-12-27T03:36:44.170Z,1008.90
2022-12-27T03:37:44.176Z,1008.93
2022-12-27T03:38:44.103Z,1008.86
2022-12-27T03:39:44.085Z,1008.87
2022-12-27T03:40:44.144Z,1008.82
2022-12-27T03:41:44.089Z,1008.90
2022-12-27T03:42:44.057Z,1008.89
2022-12-27T03:43:44.080Z,1008.92
2022-12-27T03:44:44.035Z,1008.88
2022-12-27T03:45:44.054Z,1008.89
2022-12-27T03:46:44.127Z,1008.88
2022-12-27T03:47:44.010Z,1008.85
2022-12-27T03:48:44.002Z,1008.85
2022-12-27T03:49:44.028Z,1008.88
2022-12-27T03:50:44.006Z,1008.87
2022-12-27T03:51:44.025Z,1008.88
2022-12-27T03:52:43.985Z,1008.91
2022-12-27T03:53:43.953Z,1008.79
2022-12-27T03:54:43.947Z,1008.79
2022-12-27T03:55:43.943Z,1008.84
2022-12-27T03:56:43.951Z,1008.89
2022-12-27T03:57:43.922Z,1008.88
2022-12-27T03:58:43.931Z,1008.91
2022-12-27T03:59:43.900Z,1008.90
2022-12-27T04:00:43.887Z,1008.93
2022-12-27T04:01:43.983Z,1008.91
2022-12-27T04:02:44.026Z,1008.89
2022-12-27T04:03:43.881Z,1008.85
2022-12-27T04:04:43.912Z,1008.85
2022-12-27T04:05:43.873Z,1008.82
2022-12-27T04:06:43.874Z,1008.86
2022-12-27T04:07:43.820Z,1008.90
2022-12-27T04:08:43.840Z,1008.89
2022-12-27T04:09:43.823Z,1008.92
2022-12-27T04:10:43.795Z,1008.93
2022-12-27T04:11:43.797Z,1008.93
2022-12-27T04:12:43.769Z,1008.90
2022-12-27T04:13:43.767Z,1008.88
2022-12-27T04:14:43.742Z,1008.90
2022-12-27T04:15:43.812Z,1008.96
2022-12-27T04:16:43.775Z,1008.95
2022-12-27T04:17:43.707Z,1008.94
2022-12-27T04:18:43.734Z,1008.97
2022-12-27T04:19:43.724Z,1008.92
2022-12-27T04:20:43.695Z,1008.97
2022-12-27T04:21:43.683Z,1008.93
2022-12-27T04:22:43.749Z,1008.94
2022-12-27T04:23:43.642Z,1008.95
2022-12-27T04:24:43.674Z,1008.93
2022-12-27T04:25:43.644Z,1008.89
2022-12-27T04:26:43.669Z,1008.88
2022-12-27T04:27:43.628Z,1008.89
2022-12-27T04:28:43.622Z,1008.85
2022-12-27T04:29:43.593Z,1008.85
2022-12-27T04:30:43.586Z,1008.84
2022-12-27T04:31:43.617Z,1008.84
2022-12-27T04:32:43.608Z,1008.88
2022-12-27T04:33:43.538Z,1008.87
2022-12-27T04:34:43.711Z,1008.90
2022-12-27T04:35:43.531Z,1008.92
2022-12-27T04:36:43.524Z,1008.84
2022-12-27T04:37:43.536Z,1008.89
2022-12-27T04:38:43.500Z,1008.94
2022-12-27T04:39:43.500Z,1008.87
2022-12-27T04:40:43.505Z,1008.92
2022-12-27T04:41:43.475Z,1008.90
2022-12-27T04:42:43.496Z,1008.95
2022-12-27T04:43:43.525Z,1008.97
2022-12-27T04:44:43.453Z,1008.98
2022-12-27T04:45:43.417Z,1009.01
2022-12-27T04:46:43.432Z,1009.01
2022-12-27T04:47:43.469Z,1009.00
2022-12-27T04:48:43.397Z,1009.02
2022-12-27T04:49:43.402Z,1009.03
2022-12-27T04:50:43.425Z,1009.04
2022-12-27T04:51:43.362Z,1009.03
2022-12-27T04:52:43.391Z,1009.06
2022-12-27T04:53:43.339Z,1009.03
2022-12-27T04:54:43.365Z,1009.03
2022-12-27T04:55:43.355Z,1009.07
2022-12-27T04:56:43.318Z,1009.05
2022-12-27T04:57:43.417Z,1009.09
2022-12-27T04:58:43.293Z,1009.09
2022-12-27T04:59:43.284Z,1009.09
2022-12-27T05:00:43.268Z,1009.09
2022-12-27T05:01:43.362Z,1009.07
2022-12-27T05:02:43.505Z,1008.95
2022-12-27T05:03:43.284Z,1009.09
2022-12-27T05:04:43.256Z,1009.18
2022-12-27T05:05:43.218Z,1009.13
2022-12-27T05:06:43.220Z,1009.16
2022-12-27T05:07:43.233Z,1009.22
2022-12-27T05:08:43.211Z,1009.22
2022-12-27T05:09:43.192Z,1009.21
2022-12-27T05:10:43.190Z,1009.28
2022-12-27T05:11:43.156Z,1009.24
2022-12-27T05:12:43.187Z,1009.27
2022-12-27T05:13:43.126Z,1009.29
2022-12-27T05:14:43.153Z,1009.34
2022-12-27T05:15:43.199Z,1009.30
2022-12-27T05:16:43.136Z,1009.33
2022-12-27T05:17:43.121Z,1009.34
2022-12-27T05:18:43.110Z,1009.32
2022-12-27T05:19:43.066Z,1009.36
2022-12-27T05:20:43.083Z,1009.35
2022-12-27T05:21:43.060Z,1009.41
2022-12-27T05:22:43.165Z,1009.40
2022-12-27T05:23:43.080Z,1009.37
2022-12-27T05:24:43.044Z,1009.35
2022-12-27T05:25:43.032Z,1009.42
2022-12-27T05:26:43.043Z,1009.36
2022-12-27T05:27:43.065Z,1009.29
2022-12-27T05:28:43.379Z,1009.35
2022-12-27T05:29:43.011Z,1009.43
2022-12-27T05:30:43.002Z,1009.29
2022-12-27T05:31:43.029Z,1009.30
2022-12-27T05:32:42.979Z,1009.42
2022-12-27T05:33:42.948Z,1009.39
2022-12-27T05:34:42.948Z,1009.41
2022-12-27T05:35:42.955Z,1009.42
2022-12-27T05:36:42.910Z,1009.40
2022-12-27T05:37:42.913Z,1009.43
2022-12-27T05:38:42.891Z,1009.46
2022-12-27T05:39:42.891Z,1009.47
2022-12-27T05:40:42.862Z,1009.48
2022-12-27T05:41:42.849Z,1009.50
2022-12-27T05:42:42.874Z,1009.46
2022-12-27T05:43:42.860Z,1009.52
2022-12-27T05:44:42.823Z,1009.48
2022-12-27T05:45:42.835Z,1009.48
2022-12-27T05:46:42.853Z,1009.45
2022-12-27T05:47:42.849Z,1009.47
2022-12-27T05:48:42.864Z,1009.45
2022-12-27T05:49:42.798Z,1009.55
2022-12-27T05:50:42.790Z,1009.56
2022-12-27T05:51:42.803Z,1009.58
2022-12-27T05:52:42.749Z,1009.54
2022-12-27T05:53:42.776Z,1009.53
2022-12-27T05:54:42.736Z,1009.57
2022-12-27T05:55:42.711Z,1009.64
2022-12-27T05:56:42.700Z,1009.60
2022-12-27T05:57:42.720Z,1009.56
2022-12-27T05:58:42.731Z,1009.61
2022-12-27T05:59:42.700Z,1009.66
2022-12-27T06:00:42.673Z,1009.63
2022-12-27T06:01:42.790Z,1009.60
2022-12-27T06:02:42.895Z,1009.66
2022-12-27T06:03:42.682Z,1009.65
2022-12-27T06:04:42.633Z,1009.66
2022-12-27T06:05:42.601Z,1009.69
2022-12-27T06:06:42.643Z,1009.78
2022-12-27T06:07:42.593Z,1009.76
2022-12-27T06:08:42.634Z,1009.78
2022-12-27T06:09:42.668Z,1009.80
2022-12-27T06:10:42.581Z,1009.83
2022-12-27T06:11:42.579Z,1009.80
2022-12-27T06:12:42.563Z,1009.82
2022-12-27T06:13:42.574Z,1009.81
2022-12-27T06:14:42.528Z,1009.88
2022-12-27T06:15:42.536Z,1009.85
2022-12-27T06:16:42.567Z,1009.92
2022-12-27T06:17:42.494Z,1009.88
2022-12-27T06:18:42.555Z,1009.90
2022-12-27T06:19:42.471Z,1009.90
2022-12-27T06:20:42.459Z,1009.86
2022-12-27T06:21:42.496Z,1009.90
2022-12-27T06:22:42.452Z,1009.88
2022-12-27T06:23:42.459Z,1009.89
2022-12-27T06:24:42.428Z,1009.92
2022-12-27T06:25:42.400Z,1009.93
2022-12-27T06:26:42.407Z,1009.95
2022-12-27T06:27:42.414Z,1009.93
2022-12-27T06:28:42.419Z,1010.01
2022-12-27T06:29:42.367Z,1010.01
2022-12-27T06:30:42.357Z,1009.96
2022-12-27T06:31:42.400Z,1009.99
2022-12-27T06:32:42.373Z,1010.00
2022-12-27T06:33:42.357Z,1010.00
2022-12-27T06:34:42.321Z,1010.03
2022-12-27T06:35:42.322Z,1010.01
2022-12-27T06:36:42.342Z,1010.00
2022-12-27T06:37:42.309Z,1010.02
2022-12-27T06:38:42.321Z,1010.01
2022-12-27T06:39:42.264Z,1010.02
2022-12-27T06:40:42.275Z,1010.00
2022-12-27T06:41:42.262Z,1010.00
2022-12-27T06:42:42.254Z,1010.06
2022-12-27T06:43:42.259Z,1010.08
2022-12-27T06:44:42.214Z,1010.11
2022-12-27T06:45:42.272Z,1010.10
2022-12-27T06:46:42.240Z,1010.14
2022-12-27T06:47:42.190Z,1010.19
2022-12-27T06:48:42.211Z,1010.16
2022-12-27T06:49:42.219Z,1010.16
2022-12-27T06:50:42.163Z,1010.14
2022-12-27T06:51:42.147Z,1010.16
2022-12-27T06:52:42.141Z,1010.13
2022-12-27T06:53:42.206Z,1010.12
2022-12-27T06:54:42.142Z,1010.12
2022-12-27T06:55:42.142Z,1010.12
2022-12-27T07:00:46.547Z,1010.15
2022-12-27T07:01:47.454Z,1010.14
2022-12-27T07:02:47.484Z,1010.14
2022-12-27T07:03:47.385Z,1010.15
2022-12-27T07:04:55.037Z,1010.16
2022-12-27T07:05:55.173Z,1010.22
2022-12-27T07:09:04.536Z,1010.29
2022-12-27T07:10:05.472Z,1010.31
2022-12-27T07:11:05.438Z,1010.33
2022-12-27T07:12:05.487Z,1010.35
2022-12-27T07:13:05.455Z,1010.35
2022-12-27T07:14:05.478Z,1010.38
2022-12-27T07:15:05.392Z,1010.38
2022-12-27T07:16:05.463Z,1010.40
2022-12-27T07:17:05.399Z,1010.39
2022-12-27T07:18:05.378Z,1010.38
2022-12-27T07:19:05.424Z,1010.36
2022-12-27T07:20:05.343Z,1010.40
2022-12-27T07:21:05.345Z,1010.42
2022-12-27T07:22:05.356Z,1010.41
2022-12-27T07:23:05.349Z,1010.44
2022-12-27T07:24:05.349Z,1010.44
2022-12-27T07:25:05.313Z,1010.48
2022-12-27T07:26:05.354Z,1010.48
2022-12-27T07:27:05.303Z,1010.50
2022-12-27T07:28:05.303Z,1010.53
2022-12-27T07:29:05.294Z,1010.55
2022-12-27T07:30:05.269Z,1010.55
2022-12-27T07:31:05.253Z,1010.57
2022-12-27T07:32:05.326Z,1010.59
2022-12-27T07:33:05.235Z,1010.55
2022-12-27T07:34:05.252Z,1010.61
2022-12-27T07:38:41.952Z,1010.67
2022-12-27T07:39:40.496Z,1010.70
2022-12-27T07:40:40.454Z,1010.71
2022-12-27T07:41:40.517Z,1010.69
2022-12-27T07:42:40.428Z,1010.70
2022-12-27T07:43:40.429Z,1010.69
2022-12-27T07:44:40.424Z,1010.71
2022-12-27T07:45:40.434Z,1010.70
2022-12-27T07:46:40.433Z,1010.70
2022-12-27T07:47:40.400Z,1010.71
2022-12-27T07:48:40.445Z,1010.69
2022-12-27T07:49:40.431Z,1010.73
2022-12-27T07:50:40.359Z,1010.74
2022-12-27T07:51:40.348Z,1010.73
2022-12-27T07:52:40.326Z,1010.77
2022-12-27T07:53:40.343Z,1010.73
2022-12-27T07:54:40.360Z,1010.74
2022-12-27T07:55:40.315Z,1010.75
2022-12-27T07:56:40.296Z,1010.75
2022-12-27T07:57:40.277Z,1010.75
2022-12-27T07:58:40.294Z,1010.75
2022-12-27T07:59:40.303Z,1010.74
2022-12-27T08:00:40.267Z,1010.79
2022-12-27T08:01:40.285Z,1010.77
2022-12-27T08:02:40.329Z,1010.81
2022-12-27T08:03:40.303Z,1010.82
2022-12-27T08:04:40.239Z,1010.86
2022-12-27T08:05:40.212Z,1010.89
2022-12-27T08:06:40.206Z,1010.90
2022-12-27T08:07:40.177Z,1010.90
2022-12-27T08:08:40.178Z,1010.84
2022-12-27T08:09:40.191Z,1010.88
2022-12-27T08:10:40.180Z,1010.91
2022-12-27T08:11:40.159Z,1010.92
2022-12-27T08:12:40.155Z,1010.94
2022-12-27T08:13:40.127Z,1010.94
2022-12-27T08:14:40.146Z,1010.92
2022-12-27T08:15:40.135Z,1010.95
2022-12-27T08:24:16.553Z,1011.04
2022-12-27T08:25:17.524Z,1011.07
2022-12-27T08:26:17.485Z,1011.10
2022-12-27T08:27:17.469Z,1011.11
2022-12-27T08:28:17.467Z,1011.07
2022-12-27T08:29:17.567Z,1011.14
2022-12-27T08:30:17.500Z,1011.17
2022-12-27T08:31:17.529Z,1011.16
2022-12-27T08:32:17.429Z,1011.17
2022-12-27T08:33:17.478Z,1011.18
2022-12-27T08:34:17.430Z,1011.24
2022-12-27T08:35:50.854Z,1011.25
2022-12-27T08:37:17.442Z,1011.26
2022-12-27T08:38:17.370Z,1011.22
2022-12-27T08:39:17.389Z,1011.23
2022-12-27T08:40:17.407Z,1011.24
2022-12-27T08:41:17.349Z,1011.28
2022-12-27T08:42:17.351Z,1011.26
2022-12-27T08:43:17.391Z,1011.31
2022-12-27T08:44:17.320Z,1011.31
2022-12-27T08:45:17.321Z,1011.34
2022-12-27T08:46:17.317Z,1011.31
2022-12-27T08:47:17.315Z,1011.32
2022-12-27T08:48:17.334Z,1011.33
2022-12-27T08:49:17.323Z,1011.34
2022-12-27T08:50:17.283Z,1011.31
2022-12-27T08:51:27.247Z,1011.34
2022-12-27T08:52:17.255Z,1011.35
2022-12-27T08:53:17.232Z,1011.37
2022-12-27T08:54:17.237Z,1011.37
2022-12-27T08:55:17.210Z,1011.38
2022-12-27T08:56:17.215Z,1011.38
2022-12-27T08:57:17.175Z,1011.38
2022-12-27T08:58:17.181Z,1011.41
2022-12-27T08:59:17.152Z,1011.40
2022-12-27T09:00:17.238Z,1011.42
2022-12-27T09:01:17.347Z,1011.40
2022-12-27T09:02:17.275Z,1011.42
2022-12-27T09:03:17.161Z,1011.44
2022-12-27T09:04:17.132Z,1011.47
2022-12-27T09:05:17.203Z,1011.46
2022-12-27T09:06:17.138Z,1011.47
2022-12-27T09:07:17.096Z,1011.47
2022-12-27T09:08:17.081Z,1011.51
2022-12-27T09:09:17.061Z,1011.53
2022-12-27T09:10:17.051Z,1011.52
2022-12-27T09:11:17.141Z,1011.53
2022-12-27T09:12:17.041Z,1011.53
2022-12-27T09:13:17.017Z,1011.51
2022-12-27T09:14:17.004Z,1011.50
2022-12-27T09:15:17.001Z,1011.49
2022-12-27T09:16:17.069Z,1011.50
2022-12-27T09:17:16.984Z,1011.51
2022-12-27T09:18:16.997Z,1011.51
2022-12-27T09:19:16.965Z,1011.53
2022-12-27T09:20:16.935Z,1011.55
2022-12-27T09:21:17.032Z,1011.58
2022-12-27T09:22:16.939Z,1011.62
2022-12-27T09:23:16.907Z,1011.61
2022-12-27T09:24:16.939Z,1011.64
2022-12-27T09:25:16.948Z,1011.63
2022-12-27T09:26:16.904Z,1011.66
2022-12-27T09:27:16.874Z,1011.66
2022-12-27T09:28:16.862Z,1011.65
2022-12-27T09:29:16.873Z,1011.68
2022-12-27T09:30:16.870Z,1011.68
2022-12-27T09:31:16.914Z,1011.65
2022-12-27T09:32:16.820Z,1011.65
2022-12-27T09:33:16.819Z,1011.62
2022-12-27T09:34:16.811Z,1011.64
2022-12-27T09:35:16.806Z,1011.64
2022-12-27T09:36:16.842Z,1011.63
2022-12-27T09:37:16.831Z,1011.61
2022-12-27T09:38:16.762Z,1011.64
2022-12-27T09:39:16.772Z,1011.64
2022-12-27T09:40:16.746Z,1011.55
2022-12-27T09:41:37.706Z,1011.63
2022-12-27T09:43:25.393Z,1011.58
2022-12-27T09:44:16.695Z,1011.58
2022-12-27T09:45:16.691Z,1011.59
2022-12-27T09:46:16.748Z,1011.57
2022-12-27T09:47:16.681Z,1011.57
2022-12-27T09:48:16.658Z,1011.60
2022-12-27T09:49:16.678Z,1011.59
2022-12-27T09:50:16.637Z,1011.59
2022-12-27T09:51:16.680Z,1011.55
2022-12-27T09:52:16.623Z,1011.54
2022-12-27T09:53:16.618Z,1011.54
2022-12-27T09:54:16.629Z,1011.55
2022-12-27T09:55:16.583Z,1011.56
2022-12-27T09:56:16.573Z,1011.59
2022-12-27T09:59:32.352Z,1011.60
2022-12-27T10:00:35.041Z,1011.60
2022-12-27T10:01:41.301Z,1011.58
2022-12-27T10:06:09.039Z,1011.54
2022-12-27T10:07:08.572Z,1011.51
2022-12-27T10:08:08.572Z,1011.52
2022-12-27T10:09:08.571Z,1011.53
2022-12-27T10:10:08.555Z,1011.56
2022-12-27T10:11:08.571Z,1011.53
2022-12-27T10:12:08.716Z,1011.54
2022-12-27T10:13:08.723Z,1011.56
2022-12-27T10:14:08.494Z,1011.55
2022-12-27T10:15:08.474Z,1011.55
2022-12-27T10:16:08.532Z,1011.54
2022-12-27T10:17:08.497Z,1011.57
2022-12-27T10:18:08.455Z,1011.55
2022-12-27T10:19:08.462Z,1011.58
2022-12-27T10:20:08.546Z,1011.56
2022-12-27T10:21:08.440Z,1011.52
2022-12-27T10:22:08.461Z,1011.54
2022-12-27T10:23:08.388Z,1011.58
2022-12-27T10:24:08.395Z,1011.58
2022-12-27T10:25:08.434Z,1011.61
2022-12-27T10:26:08.479Z,1011.67
2022-12-27T10:27:08.374Z,1011.65
2022-12-27T10:28:08.516Z,1011.59
2022-12-27T10:29:08.330Z,1011.68
2022-12-27T10:30:08.330Z,1011.64
2022-12-27T10:31:08.433Z,1011.68
2022-12-27T10:32:08.329Z,1011.70
2022-12-27T10:33:08.302Z,1011.63
2022-12-27T10:34:10.805Z,1011.59
2022-12-27T10:35:08.284Z,1011.59
2022-12-27T10:36:08.270Z,1011.62
2022-12-27T10:37:08.317Z,1011.60
2022-12-27T10:38:08.290Z,1011.60
2022-12-27T10:39:14.741Z,1011.60
2022-12-27T10:40:16.729Z,1011.63
2022-12-27T10:41:14.721Z,1011.66
2022-12-27T10:42:08.236Z,1011.64
2022-12-27T10:43:08.199Z,1011.66
2022-12-27T10:44:08.192Z,1011.66
2022-12-27T10:45:08.183Z,1011.66
2022-12-27T10:46:08.207Z,1011.67
2022-12-27T10:47:08.193Z,1011.66
2022-12-27T10:48:08.149Z,1011.69
2022-12-27T10:49:21.042Z,1011.72
2022-12-27T10:50:08.141Z,1011.73
2022-12-27T10:51:08.138Z,1011.72
2022-12-27T10:52:08.135Z,1011.72
2022-12-27T10:53:08.087Z,1011.72
2022-12-27T10:54:08.134Z,1011.75
2022-12-27T10:55:08.065Z,1011.79
2022-12-27T10:56:08.080Z,1011.76
2022-12-27T10:57:08.075Z,1011.75
2022-12-27T10:58:08.043Z,1011.74
2022-12-27T10:59:08.020Z,1011.70
2022-12-27T11:00:08.033Z,1011.69
2022-12-27T11:01:08.066Z,1011.68
2022-12-27T11:02:08.131Z,1011.67
2022-12-27T11:03:08.124Z,1011.67
2022-12-27T11:04:08.005Z,1011.71
2022-12-27T11:05:08.055Z,1011.69
2022-12-27T11:06:08.049Z,1011.72
2022-12-27T11:07:07.955Z,1011.72
2022-12-27T11:08:07.967Z,1011.74
2022-12-27T11:09:07.923Z,1011.73
2022-12-27T11:10:07.938Z,1011.71
2022-12-27T11:11:07.903Z,1011.75
2022-12-27T11:12:07.902Z,1011.70
2022-12-27T11:13:07.928Z,1011.74
2022-12-27T11:14:14.721Z,1011.77
2022-12-27T11:15:14.399Z,1011.75
2022-12-27T11:16:50.897Z,1011.77
2022-12-27T11:17:07.835Z,1011.77
2022-12-27T11:18:15.635Z,1011.79
2022-12-27T11:19:14.332Z,1011.81
2022-12-27T11:20:07.871Z,1011.83
2022-12-27T11:21:09.631Z,1011.84
2022-12-27T11:22:07.818Z,1011.83
2022-12-27T11:23:07.815Z,1011.86
2022-12-27T11:24:07.787Z,1011.88
2022-12-27T11:25:07.773Z,1011.86
2022-12-27T11:26:07.780Z,1011.87
2022-12-27T11:27:07.763Z,1011.88
2022-12-27T11:28:07.808Z,1011.89
2022-12-27T11:29:07.733Z,1011.92
2022-12-27T11:30:07.753Z,1011.94
2022-12-27T11:31:07.773Z,1011.95
2022-12-27T11:32:07.734Z,1011.95
2022-12-27T11:33:07.717Z,1011.96
2022-12-27T11:34:07.709Z,1011.95
2022-12-27T11:35:07.664Z,1011.97
2022-12-27T11:36:07.712Z,1011.98
2022-12-27T11:37:07.639Z,1011.95
2022-12-27T11:38:07.660Z,1011.95
2022-12-27T11:39:07.683Z,1011.94
2022-12-27T11:40:07.645Z,1011.91
2022-12-27T11:41:14.241Z,1011.88
2022-12-27T11:42:07.604Z,1011.84
2022-12-27T11:43:07.616Z,1011.83
2022-12-27T11:44:07.590Z,1011.79
2022-12-27T11:45:07.566Z,1011.77
2022-12-27T11:46:07.548Z,1011.74
2022-12-27T11:47:07.578Z,1011.73
2022-12-27T11:48:07.566Z,1011.74
2022-12-27T11:49:07.507Z,1011.75
2022-12-27T11:50:07.528Z,1011.75
2022-12-27T11:51:07.496Z,1011.74
2022-12-27T11:52:07.540Z,1011.75
2022-12-27T11:53:07.599Z,1011.73
2022-12-27T11:54:07.504Z,1011.73
2022-12-27T11:55:07.539Z,1011.75
2022-12-27T11:56:07.460Z,1011.70
2022-12-27T11:57:07.448Z,1011.73
2022-12-27T11:58:07.513Z,1011.75
2022-12-27T11:59:07.769Z,1011.75
2022-12-27T12:00:07.437Z,1011.75
2022-12-27T12:01:07.410Z,1011.73
2022-12-27T12:02:07.533Z,1011.71
2022-12-27T12:03:07.527Z,1011.70
2022-12-27T12:04:07.376Z,1011.68
2022-12-27T12:05:07.362Z,1011.67
2022-12-27T12:06:07.350Z,1011.67
2022-12-27T12:07:07.331Z,1011.65
2022-12-27T12:08:07.360Z,1011.65
2022-12-27T12:09:07.324Z,1011.63
2022-12-27T12:10:07.328Z,1011.61
2022-12-27T12:11:07.293Z,1011.63
2022-12-27T12:12:07.302Z,1011.63
2022-12-27T12:13:07.314Z,1011.64
2022-12-27T12:14:07.269Z,1011.64
2022-12-27T12:15:07.303Z,1011.62
2022-12-27T12:16:07.269Z,1011.61
2022-12-27T12:17:07.249Z,1011.61
2022-12-27T12:18:07.230Z,1011.62
2022-12-27T12:19:07.238Z,1011.59
2022-12-27T12:20:07.246Z,1011.58
2022-12-27T12:21:07.204Z,1011.55
2022-12-27T12:22:07.188Z,1011.51
2022-12-27T12:23:15.127Z,1011.50
2022-12-27T12:24:07.176Z,1011.50
2022-12-27T12:25:14.664Z,1011.48
2022-12-27T12:26:07.152Z,1011.50
2022-12-27T12:27:07.145Z,1011.47
2022-12-27T12:28:30.049Z,1011.48
2022-12-27T12:29:07.157Z,1011.50
2022-12-27T12:30:07.117Z,1011.46
2022-12-27T12:31:07.088Z,1011.47
2022-12-27T12:32:07.147Z,1011.45
2022-12-27T12:33:07.074Z,1011.43
2022-12-27T12:34:07.118Z,1011.45
2022-12-27T12:35:07.090Z,1011.41
2022-12-27T12:36:07.076Z,1011.41
2022-12-27T12:37:07.042Z,1011.38
2022-12-27T12:38:07.094Z,1011.37
2022-12-27T12:39:07.048Z,1011.33
2022-12-27T12:40:07.029Z,1011.30
2022-12-27T12:41:06.990Z,1011.27
2022-12-27T12:42:06.990Z,1011.31
2022-12-27T12:43:06.982Z,1011.26
2022-12-27T12:44:06.987Z,1011.27
2022-12-27T12:45:06.952Z,1011.25
2022-12-27T12:46:07.044Z,1011.22